Time;durP1;ratioP1;P1;durP2;ratioP2;P2;SDS_P1;SDS_P2;PMS_P1;PMS_P2;Temp;Humidity;BMP_temperature;BMP_pressure;BME280_temperature;BME280_humidity;BME280_pressure;Samples;Min_cycle;Max_cycle;Signal;HPM_P1;HPM_P2
2024/01/06 00:02:10;;;;;;;18.43;9.27;;;-1.10;99.90;;;;;;5033889;28;20197;-73
2024/01/06 00:04:58;;;;;;;18.80;9.40;;;-1.10;99.90;;;;;;5032645;28;20609;-74
2024/01/06 00:07:45;;;;;;;20.23;9.43;;;-1.10;99.90;;;;;;5031998;28;20771;-74
2024/01/06 00:10:32;;;;;;;21.33;9.33;;;-1.10;99.90;;;;;;5032505;28;20193;-74
2024/01/06 00:13:19;;;;;;;24.27;10.43;;;-1.10;99.90;;;;;;5031402;28;20209;-73
2024/01/06 00:16:07;;;;;;;18.77;9.27;;;-1.20;99.90;;;;;;5032375;28;20210;-73
2024/01/06 00:18:54;;;;;;;18.13;9.27;;;-1.20;99.90;;;;;;5030798;28;20286;-74
2024/01/06 00:21:42;;;;;;;21.07;10.10;;;-1.20;99.90;;;;;;5032300;28;20279;-74
2024/01/06 00:24:29;;;;;;;19.93;9.63;;;-1.20;99.90;;;;;;5032302;28;20255;-74
2024/01/06 00:27:17;;;;;;;20.57;9.93;;;-1.20;99.90;;;;;;5031133;28;20222;-73
2024/01/06 00:30:05;;;;;;;20.47;9.90;;;-1.20;99.90;;;;;;5032484;28;20187;-74
2024/01/06 00:32:52;;;;;;;21.03;10.63;;;-1.30;99.90;;;;;;5032192;28;20619;-74
2024/01/06 00:35:40;;;;;;;23.93;11.13;;;-1.30;99.90;;;;;;5032200;28;20196;-73
2024/01/06 00:38:27;;;;;;;24.07;11.33;;;-1.40;99.90;;;;;;5031782;28;20211;-73
2024/01/06 00:41:15;;;;;;;21.33;11.00;;;-1.40;99.90;;;;;;5031462;28;20587;-73
2024/01/06 00:44:02;;;;;;;22.70;11.63;;;-1.40;99.90;;;;;;5031588;28;20567;-74
2024/01/06 00:46:49;;;;;;;24.33;11.70;;;-1.40;99.90;;;;;;5032102;28;20190;-72
2024/01/06 00:49:37;;;;;;;27.03;11.83;;;-1.40;99.90;;;;;;5031125;28;20581;-73
2024/01/06 00:52:24;;;;;;;26.37;12.03;;;-1.30;99.90;;;;;;5033688;28;20243;-74
2024/01/06 00:55:12;;;;;;;27.33;12.20;;;-1.40;99.90;;;;;;5035566;28;20203;-74
2024/01/06 00:57:59;;;;;;;26.00;11.97;;;-1.40;99.90;;;;;;5034909;28;20258;-74
2024/01/06 01:00:47;;;;;;;28.53;12.77;;;-1.40;99.90;;;;;;5035759;28;20717;-73
2024/01/06 01:03:34;;;;;;;29.10;12.53;;;-1.30;99.90;;;;;;5036000;28;20197;-73
2024/01/06 01:06:21;;;;;;;26.47;12.80;;;-1.40;99.90;;;;;;5034962;28;20224;-74
2024/01/06 01:09:10;;;;;;;28.20;12.67;;;-1.40;99.90;;;;;;5035868;28;20212;-72
2024/01/06 01:11:57;;;;;;;26.10;12.57;;;-1.40;99.90;;;;;;5035635;28;20216;-74
2024/01/06 01:14:45;;;;;;;28.10;12.47;;;-1.50;99.90;;;;;;5035258;28;20205;-73
2024/01/06 01:17:32;;;;;;;26.30;12.73;;;-1.50;99.90;;;;;;5035172;28;20358;-73
2024/01/06 01:20:20;;;;;;;28.43;12.97;;;-1.50;99.90;;;;;;5034744;28;20208;-73
2024/01/06 01:23:08;;;;;;;24.87;11.57;;;-1.40;99.90;;;;;;5035712;28;20204;-73
2024/01/06 01:25:55;;;;;;;25.23;11.87;;;-1.40;99.90;;;;;;5035468;28;20199;-74
2024/01/06 01:28:43;;;;;;;25.97;12.43;;;-1.40;99.90;;;;;;5035030;28;20289;-73
2024/01/06 01:31:30;;;;;;;26.50;12.40;;;-1.40;99.90;;;;;;5034570;28;20206;-73
2024/01/06 01:34:17;;;;;;;27.13;12.70;;;-1.40;99.90;;;;;;5035507;28;21134;-73
2024/01/06 01:37:05;;;;;;;26.77;12.23;;;-1.40;99.90;;;;;;5035327;28;20681;-74
2024/01/06 01:39:52;;;;;;;26.60;12.20;;;-1.40;99.90;;;;;;5034252;28;20195;-74
2024/01/06 01:42:42;;;;;;;24.33;11.17;;;-1.40;99.90;;;;;;5034652;28;20297;-74
2024/01/06 01:45:30;;;;;;;22.67;11.10;;;-1.40;99.90;;;;;;5034653;28;20207;-74
2024/01/06 01:48:19;;;;;;;25.27;11.07;;;-1.40;99.90;;;;;;5034090;28;20215;-73
2024/01/06 01:51:09;;;;;;;25.33;11.13;;;-1.30;99.90;;;;;;5034475;28;20245;-74
2024/01/06 01:53:58;;;;;;;21.53;10.70;;;-1.30;99.90;;;;;;5034334;28;20595;-73
2024/01/06 01:56:46;;;;;;;23.63;11.33;;;-1.30;99.90;;;;;;5034919;28;20247;-73
2024/01/06 01:59:33;;;;;;;21.47;11.13;;;-1.30;99.90;;;;;;5033387;28;20190;-73
2024/01/06 02:02:22;;;;;;;23.00;11.30;;;-1.30;99.90;;;;;;5034263;28;20366;-73
2024/01/06 02:05:09;;;;;;;24.50;11.17;;;-1.30;99.90;;;;;;5034337;28;20192;-73
2024/01/06 02:07:57;;;;;;;22.70;11.10;;;-1.40;99.90;;;;;;5033695;28;20193;-72
2024/01/06 02:10:45;;;;;;;22.63;11.00;;;-1.30;99.90;;;;;;5034646;28;20234;-73
2024/01/06 02:13:36;;;;;;;23.20;10.77;;;-1.40;99.90;;;;;;5034672;28;20695;-74
2024/01/06 02:16:24;;;;;;;20.87;10.77;;;-1.30;99.90;;;;;;5034703;28;20682;-74
2024/01/06 02:19:13;;;;;;;20.33;9.77;;;-1.40;99.90;;;;;;5035182;28;20193;-74
2024/01/06 02:22:01;;;;;;;22.73;10.70;;;-1.40;99.90;;;;;;5035117;28;20660;-74
2024/01/06 02:24:48;;;;;;;21.13;10.33;;;-1.30;99.90;;;;;;5034026;28;20226;-73
2024/01/06 02:27:35;;;;;;;21.93;11.03;;;-1.30;99.90;;;;;;5033107;28;20216;-74
2024/01/06 02:30:22;;;;;;;21.87;10.07;;;-1.20;99.90;;;;;;5033104;28;20206;-73
2024/01/06 02:33:10;;;;;;;24.27;11.10;;;-1.40;99.90;;;;;;5034285;28;20220;-73
2024/01/06 02:35:58;;;;;;;23.10;10.43;;;-1.30;99.90;;;;;;5033964;28;20224;-73
2024/01/06 02:38:45;;;;;;;21.70;10.47;;;-1.30;99.90;;;;;;5034292;28;20209;-74
2024/01/06 02:41:33;;;;;;;19.93;9.97;;;-1.30;99.90;;;;;;5033526;28;20688;-74
2024/01/06 02:44:20;;;;;;;23.40;10.40;;;-1.20;99.90;;;;;;5033531;28;20600;-74
2024/01/06 02:47:08;;;;;;;19.77;9.53;;;-1.20;99.90;;;;;;5033029;28;20202;-73
2024/01/06 02:49:55;;;;;;;19.43;9.97;;;-1.10;99.90;;;;;;5033069;28;20651;-74
2024/01/06 02:52:44;;;;;;;23.43;9.33;;;-1.20;99.90;;;;;;5033277;28;20248;-73
2024/01/06 02:55:31;;;;;;;17.77;9.10;;;-1.20;99.90;;;;;;5033195;28;20196;-74
2024/01/06 02:58:19;;;;;;;18.30;9.03;;;-1.30;99.90;;;;;;5033119;28;20684;-74
2024/01/06 03:01:06;;;;;;;18.37;8.67;;;-1.30;99.90;;;;;;5033799;28;20195;-73
2024/01/06 03:03:54;;;;;;;18.30;8.63;;;-1.20;99.90;;;;;;5033772;28;20206;-73
2024/01/06 03:06:41;;;;;;;16.37;8.63;;;-1.20;99.90;;;;;;5032094;28;20226;-73
2024/01/06 03:09:29;;;;;;;18.40;8.50;;;-1.10;99.90;;;;;;5032656;28;20213;-74
2024/01/06 03:12:16;;;;;;;17.00;7.83;;;-1.20;99.90;;;;;;5033524;28;20225;-73
2024/01/06 03:15:04;;;;;;;16.83;8.23;;;-1.20;99.90;;;;;;5031992;28;20205;-74
2024/01/06 03:17:51;;;;;;;16.77;7.77;;;-1.20;99.90;;;;;;5032501;28;20340;-72
2024/01/06 03:20:39;;;;;;;17.37;7.63;;;-1.30;99.90;;;;;;5033481;28;20718;-73
2024/01/06 03:23:27;;;;;;;14.73;7.83;;;-1.30;99.90;;;;;;5032970;28;20201;-74
2024/01/06 03:26:14;;;;;;;16.17;8.00;;;-1.40;99.90;;;;;;5032685;28;20216;-74
2024/01/06 03:29:02;;;;;;;15.87;7.70;;;-1.40;99.90;;;;;;5032862;28;20608;-74
2024/01/06 03:31:49;;;;;;;15.37;8.30;;;-1.30;99.90;;;;;;5033816;28;20281;-74
2024/01/06 03:34:37;;;;;;;15.83;7.97;;;-1.40;99.90;;;;;;5032687;28;20286;-74
2024/01/06 03:37:25;;;;;;;18.37;7.93;;;-1.50;99.90;;;;;;5033124;28;20199;-74
2024/01/06 03:40:12;;;;;;;15.97;7.77;;;-1.40;99.90;;;;;;5033111;28;20202;-74
2024/01/06 03:43:00;;;;;;;13.73;7.97;;;-1.30;99.90;;;;;;5032436;28;20667;-74
2024/01/06 03:45:47;;;;;;;18.60;8.80;;;-1.30;99.90;;;;;;5033619;28;20198;-73
2024/01/06 03:48:35;;;;;;;15.60;8.20;;;-1.30;99.90;;;;;;5032170;28;20192;-73
2024/01/06 03:51:22;;;;;;;16.57;8.00;;;-1.30;99.90;;;;;;5032908;28;20195;-74
2024/01/06 03:54:10;;;;;;;15.33;8.50;;;-1.30;99.90;;;;;;5031221;28;20692;-73
2024/01/06 03:56:57;;;;;;;15.23;8.17;;;-1.30;99.90;;;;;;5032778;28;20215;-74
2024/01/06 03:59:44;;;;;;;17.10;7.87;;;-1.30;99.90;;;;;;5031159;28;20238;-74
2024/01/06 04:02:32;;;;;;;17.43;8.17;;;-1.40;99.90;;;;;;5033825;28;20314;-73
2024/01/06 04:05:19;;;;;;;17.37;8.87;;;-1.30;99.90;;;;;;5033148;28;20240;-73
2024/01/06 04:08:06;;;;;;;18.03;8.67;;;-1.40;99.90;;;;;;5032048;28;20190;-74
2024/01/06 04:10:55;;;;;;;17.20;8.37;;;-1.40;99.90;;;;;;5031956;28;20545;-73
2024/01/06 04:13:42;;;;;;;17.50;8.90;;;-1.40;99.90;;;;;;5031349;28;20278;-74
2024/01/06 04:16:29;;;;;;;18.60;9.23;;;-1.40;99.90;;;;;;5032471;28;20545;-73
2024/01/06 04:19:16;;;;;;;19.37;9.23;;;-1.30;99.90;;;;;;5031865;28;20271;-74
2024/01/06 04:22:04;;;;;;;16.43;8.60;;;-1.40;99.90;;;;;;5031882;28;20192;-74
2024/01/06 04:24:51;;;;;;;17.63;9.10;;;-1.30;99.90;;;;;;5032944;28;20198;-73
2024/01/06 04:27:39;;;;;;;18.17;9.50;;;-1.30;99.90;;;;;;5031218;28;20725;-74
2024/01/06 04:30:26;;;;;;;21.53;9.77;;;-1.30;99.90;;;;;;5031769;28;20657;-73
2024/01/06 04:33:14;;;;;;;20.73;9.93;;;-1.40;99.90;;;;;;5032820;28;20690;-72
2024/01/06 04:36:02;;;;;;;21.73;9.87;;;-1.40;99.90;;;;;;5032307;28;20202;-73
2024/01/06 04:38:49;;;;;;;17.73;9.33;;;-1.40;99.90;;;;;;5032234;28;20251;-74
2024/01/06 04:41:37;;;;;;;19.47;9.87;;;-1.40;99.90;;;;;;5031178;28;20287;-73
2024/01/06 04:44:24;;;;;;;23.30;10.63;;;-1.30;99.90;;;;;;5031170;28;20225;-74
2024/01/06 04:47:11;;;;;;;20.97;10.03;;;-1.30;99.90;;;;;;5031500;28;20198;-73
2024/01/06 04:49:59;;;;;;;19.17;9.83;;;-1.30;99.90;;;;;;5031640;28;20198;-73
2024/01/06 04:52:46;;;;;;;20.77;10.43;;;-1.20;99.90;;;;;;5032611;28;20199;-73
2024/01/06 04:55:34;;;;;;;22.47;9.87;;;-1.20;99.90;;;;;;5031767;28;20335;-74
2024/01/06 04:58:21;;;;;;;22.40;9.83;;;-1.20;99.90;;;;;;5032052;28;20573;-74
2024/01/06 05:01:08;;;;;;;19.83;9.67;;;-1.20;99.90;;;;;;5031098;28;20229;-74
2024/01/06 05:03:56;;;;;;;20.60;10.23;;;-1.10;99.90;;;;;;5033125;28;20194;-74
2024/01/06 05:06:44;;;;;;;20.63;10.03;;;-1.10;99.90;;;;;;5031604;28;20223;-73
2024/01/06 05:09:31;;;;;;;19.23;10.10;;;-1.20;99.90;;;;;;5032030;28;20201;-72
2024/01/06 05:12:18;;;;;;;19.63;9.93;;;-1.20;99.90;;;;;;5031915;28;20211;-71
2024/01/06 05:15:06;;;;;;;18.40;9.67;;;-1.20;99.90;;;;;;5032447;28;20281;-73
2024/01/06 05:17:54;;;;;;;20.93;10.07;;;-1.20;99.90;;;;;;5031913;28;20349;-73
2024/01/06 05:20:43;;;;;;;18.30;9.87;;;-1.10;99.90;;;;;;5033367;28;20200;-75
2024/01/06 05:23:30;;;;;;;19.73;10.33;;;-1.10;99.90;;;;;;5031942;28;20333;-73
2024/01/06 05:26:18;;;;;;;22.20;11.03;;;-1.10;99.90;;;;;;5031677;28;20220;-73
2024/01/06 05:29:05;;;;;;;20.23;10.43;;;-1.10;99.90;;;;;;5031290;28;20277;-73
2024/01/06 05:31:53;;;;;;;22.50;10.47;;;-1.20;99.90;;;;;;5032911;28;20230;-73
2024/01/06 05:34:40;;;;;;;20.67;9.50;;;-1.20;99.90;;;;;;5031031;28;20217;-73
2024/01/06 05:37:28;;;;;;;19.80;9.83;;;-1.30;99.90;;;;;;5032781;28;20209;-74
2024/01/06 05:40:15;;;;;;;17.73;9.27;;;-1.20;99.90;;;;;;5035397;28;20669;-73
2024/01/06 05:43:02;;;;;;;18.10;8.97;;;-1.30;99.90;;;;;;5034720;28;20678;-74
2024/01/06 05:45:50;;;;;;;17.87;8.93;;;-1.20;99.90;;;;;;5034229;28;20266;-73
2024/01/06 05:48:37;;;;;;;19.73;8.97;;;-1.20;99.90;;;;;;5035834;28;20213;-74
2024/01/06 05:51:25;;;;;;;17.77;8.70;;;-1.30;99.90;;;;;;5034227;28;20193;-73
2024/01/06 05:54:13;;;;;;;16.40;8.60;;;-1.30;99.90;;;;;;5035106;28;20215;-73
2024/01/06 05:57:00;;;;;;;17.83;8.23;;;-1.30;99.90;;;;;;5035131;28;20317;-75
2024/01/06 05:59:48;;;;;;;15.93;8.07;;;-1.30;99.90;;;;;;5036108;28;20205;-73
2024/01/06 06:02:36;;;;;;;15.60;7.80;;;-1.30;99.90;;;;;;5034964;28;20248;-73
2024/01/06 06:05:23;;;;;;;14.33;8.10;;;-1.30;99.90;;;;;;5034868;28;20668;-73
2024/01/06 06:08:10;;;;;;;14.93;7.90;;;-1.30;99.90;;;;;;5034232;28;20197;-73
2024/01/06 06:11:10;;;;;;;18.90;8.40;;;-1.20;99.90;;;;;;5033186;28;20247;-74
2024/01/06 06:13:58;;;;;;;16.07;8.23;;;-1.30;99.90;;;;;;5033123;28;20231;-74
2024/01/06 06:16:46;;;;;;;19.43;8.30;;;-1.40;99.90;;;;;;5035755;28;20572;-73
2024/01/06 06:19:34;;;;;;;16.83;8.40;;;-1.30;99.90;;;;;;5034662;28;20199;-74
2024/01/06 06:22:21;;;;;;;16.73;8.07;;;-1.40;99.90;;;;;;5033616;28;20193;-73
2024/01/06 06:25:09;;;;;;;16.47;8.13;;;-1.40;99.90;;;;;;5034542;28;20228;-74
2024/01/06 06:27:56;;;;;;;14.57;7.77;;;-1.30;99.90;;;;;;5033836;28;20223;-73
2024/01/06 06:30:44;;;;;;;17.03;8.50;;;-1.30;99.90;;;;;;5033962;28;20208;-73
2024/01/06 06:33:33;;;;;;;15.53;7.97;;;-1.30;99.90;;;;;;5034315;28;20213;-74
2024/01/06 06:36:20;;;;;;;14.60;8.10;;;-1.30;99.90;;;;;;5032728;28;20195;-74
2024/01/06 06:39:08;;;;;;;15.70;8.17;;;-1.40;99.90;;;;;;5034251;28;20553;-72
2024/01/06 06:41:55;;;;;;;14.10;8.03;;;-1.30;99.90;;;;;;5033191;28;20223;-75
2024/01/06 06:44:43;;;;;;;15.10;8.30;;;-1.30;99.90;;;;;;5035303;28;20217;-72
2024/01/06 06:47:30;;;;;;;15.93;7.93;;;-1.40;99.90;;;;;;5033221;28;20597;-74
2024/01/06 06:50:18;;;;;;;17.17;8.07;;;-1.30;99.90;;;;;;5033067;28;20205;-74
2024/01/06 06:53:05;;;;;;;14.57;8.27;;;-1.40;99.90;;;;;;5032986;28;20190;-74
2024/01/06 06:55:53;;;;;;;14.83;7.53;;;-1.30;99.90;;;;;;5034172;28;20274;-74
2024/01/06 06:58:40;;;;;;;17.57;8.20;;;-1.30;99.90;;;;;;5033241;28;20621;-73
2024/01/06 07:01:27;;;;;;;16.87;8.70;;;-1.30;99.90;;;;;;5033903;28;20205;-74
2024/01/06 07:04:16;;;;;;;14.13;7.53;;;-1.30;99.90;;;;;;5033826;28;20713;-73
2024/01/06 07:07:03;;;;;;;17.47;8.57;;;-1.30;99.90;;;;;;5033754;28;20284;-74
2024/01/06 07:09:50;;;;;;;16.87;8.13;;;-1.30;99.90;;;;;;5033117;28;20207;-74
2024/01/06 07:12:38;;;;;;;17.07;8.77;;;-1.30;99.90;;;;;;5033235;28;20305;-74
2024/01/06 07:15:25;;;;;;;16.33;8.77;;;-1.30;99.90;;;;;;5033515;28;20238;-73
2024/01/06 07:18:13;;;;;;;17.67;8.50;;;-1.40;99.90;;;;;;5033621;28;20299;-73
2024/01/06 07:21:01;;;;;;;16.20;8.27;;;-1.40;99.90;;;;;;5034064;28;20203;-74
2024/01/06 07:23:49;;;;;;;17.43;8.47;;;-1.30;99.90;;;;;;5032420;28;20771;-72
2024/01/06 07:26:36;;;;;;;16.63;8.40;;;-1.40;99.90;;;;;;5033871;28;20255;-74
2024/01/06 07:29:23;;;;;;;16.70;9.07;;;-1.40;99.90;;;;;;5033277;28;20222;-74
2024/01/06 07:32:11;;;;;;;17.73;8.67;;;-1.30;99.90;;;;;;5032975;28;20239;-74
2024/01/06 07:34:58;;;;;;;18.33;8.93;;;-1.30;99.90;;;;;;5030856;28;20765;-73
2024/01/06 07:37:49;;;;;;;17.43;9.30;;;-1.20;99.90;;;;;;5033205;28;20204;-74
2024/01/06 07:40:37;;;;;;;18.93;9.67;;;-1.30;99.90;;;;;;5033779;28;20208;-74
2024/01/06 07:43:24;;;;;;;17.27;9.23;;;-1.30;99.90;;;;;;5030978;28;20463;-73
2024/01/06 07:46:12;;;;;;;20.53;9.77;;;-1.20;99.90;;;;;;5032522;28;20231;-74
2024/01/06 07:49:00;;;;;;;19.23;9.50;;;-1.10;99.90;;;;;;5032967;28;20232;-74
2024/01/06 07:51:47;;;;;;;21.70;10.33;;;-1.20;99.90;;;;;;5032909;28;20202;-74
2024/01/06 07:54:34;;;;;;;21.57;9.80;;;-1.20;99.90;;;;;;5031691;28;20330;-73
2024/01/06 07:57:22;;;;;;;21.60;9.33;;;-1.20;99.90;;;;;;5032758;28;20633;-73
2024/01/06 08:00:10;;;;;;;18.87;9.73;;;-1.10;99.90;;;;;;5032580;28;20683;-74
2024/01/06 08:02:58;;;;;;;20.93;10.47;;;-1.10;99.90;;;;;;5034419;28;20222;-74
2024/01/06 08:05:45;;;;;;;19.83;10.17;;;-1.20;99.90;;;;;;5031988;28;20238;-74
2024/01/06 08:08:32;;;;;;;18.67;9.30;;;-1.20;99.90;;;;;;5031995;28;20196;-73
2024/01/06 08:11:20;;;;;;;20.93;10.13;;;-1.20;99.90;;;;;;5031873;28;20228;-74
2024/01/06 08:14:08;;;;;;;21.60;10.00;;;-1.20;99.90;;;;;;5033555;28;20228;-73
2024/01/06 08:16:55;;;;;;;22.40;10.90;;;-1.20;99.90;;;;;;5032506;28;20563;-73
2024/01/06 08:19:43;;;;;;;21.43;10.40;;;-1.30;99.90;;;;;;5031886;28;20203;-73
2024/01/06 08:22:30;;;;;;;20.33;10.77;;;-1.20;99.90;;;;;;5031348;28;20198;-73
2024/01/06 08:25:17;;;;;;;21.53;10.53;;;-1.20;99.90;;;;;;5031725;28;20274;-73
2024/01/06 08:28:05;;;;;;;19.93;10.07;;;-1.10;99.90;;;;;;5033437;28;20196;-74
2024/01/06 08:30:53;;;;;;;21.07;10.33;;;-1.10;99.90;;;;;;5032323;28;20290;-73
2024/01/06 08:33:40;;;;;;;21.10;10.50;;;-1.10;99.90;;;;;;5031900;28;20640;-74
2024/01/06 08:36:28;;;;;;;19.80;9.83;;;-1.20;99.90;;;;;;5032506;28;20201;-74
2024/01/06 08:39:15;;;;;;;19.37;9.70;;;-1.20;99.90;;;;;;5032875;28;20643;-73
2024/01/06 08:42:03;;;;;;;19.37;9.67;;;-1.20;99.90;;;;;;5032164;28;20209;-73
2024/01/06 08:44:50;;;;;;;17.93;9.63;;;-1.20;99.90;;;;;;5032204;28;20250;-73
2024/01/06 08:47:37;;;;;;;19.03;9.67;;;-1.20;99.90;;;;;;5031528;28;20669;-74
2024/01/06 08:50:25;;;;;;;21.30;10.37;;;-1.10;99.90;;;;;;5032101;28;20197;-74
2024/01/06 08:53:12;;;;;;;19.47;9.80;;;-1.10;99.90;;;;;;5032053;28;20278;-73
2024/01/06 08:55:59;;;;;;;19.77;9.80;;;-1.10;99.90;;;;;;5031781;28;20217;-74
2024/01/06 08:58:47;;;;;;;20.20;9.50;;;-1.20;99.90;;;;;;5032534;28;20193;-74
2024/01/06 09:01:36;;;;;;;20.70;9.50;;;-1.10;99.90;;;;;;5032526;28;20676;-72
2024/01/06 09:04:23;;;;;;;16.93;9.07;;;-1.10;99.90;;;;;;5030290;28;20191;-73
2024/01/06 09:07:10;;;;;;;19.33;9.50;;;-1.10;99.90;;;;;;5032001;28;20235;-74
2024/01/06 09:09:59;;;;;;;17.07;8.87;;;-1.00;99.90;;;;;;5030997;28;20204;-73
2024/01/06 09:12:47;;;;;;;21.20;9.43;;;-1.00;99.90;;;;;;5033587;28;20236;-74
2024/01/06 09:15:35;;;;;;;19.73;9.57;;;-1.00;99.90;;;;;;5035564;28;20265;-74
2024/01/06 09:18:22;;;;;;;17.63;8.93;;;-1.00;99.90;;;;;;5034022;28;20200;-74
2024/01/06 09:21:10;;;;;;;16.53;8.83;;;-1.20;99.90;;;;;;5036352;28;20197;-74
2024/01/06 09:23:57;;;;;;;18.20;9.20;;;-1.20;99.90;;;;;;5034664;28;20272;-73
2024/01/06 09:26:44;;;;;;;20.77;9.43;;;-1.10;99.90;;;;;;5035568;28;20309;-74
2024/01/06 09:29:32;;;;;;;17.87;8.77;;;-1.00;99.90;;;;;;5034584;28;20198;-74
2024/01/06 09:32:19;;;;;;;19.13;9.43;;;-1.10;99.90;;;;;;5036223;28;20707;-74
2024/01/06 09:35:07;;;;;;;17.97;8.90;;;-1.10;99.90;;;;;;5034319;28;20223;-75
2024/01/06 09:37:55;;;;;;;20.23;10.88;;;-1.10;99.90;;;;;;5035240;28;20419;-74
2024/01/06 09:40:44;;;;;;;15.63;8.97;;;-1.10;99.90;;;;;;5035540;28;20188;-72
2024/01/06 09:43:32;;;;;;;18.83;9.43;;;-0.90;99.90;;;;;;5035287;28;20191;-76
2024/01/06 09:46:29;;;;;;;20.47;9.53;;;-0.80;99.90;;;;;;5034651;28;20688;-74
2024/01/06 09:49:24;;;;;;;17.80;8.53;;;-0.70;99.90;;;;;;5033789;28;20203;-76
2024/01/06 09:52:17;;;;;;;16.50;9.00;;;-0.70;99.90;;;;;;5034719;28;20201;-75
2024/01/06 09:55:09;;;;;;;17.23;8.30;;;-0.80;99.90;;;;;;5035360;28;20592;-75
2024/01/06 09:57:57;;;;;;;32.10;8.70;;;-0.80;99.90;;;;;;5035167;28;20294;-75
2024/01/06 10:00:44;;;;;;;15.83;8.37;;;-0.80;99.90;;;;;;5034991;28;20191;-74
2024/01/06 10:03:34;;;;;;;16.00;7.70;;;-0.70;99.90;;;;;;5034092;28;20202;-74
2024/01/06 10:06:21;;;;;;;15.67;7.83;;;-0.70;99.90;;;;;;5034623;28;20228;-76
2024/01/06 10:09:11;;;;;;;16.30;8.00;;;-0.80;99.90;;;;;;5034756;28;20201;-74
2024/01/06 10:11:59;;;;;;;13.63;7.73;;;-0.80;99.90;;;;;;5034708;28;20224;-75
2024/01/06 10:14:47;;;;;;;14.33;7.50;;;-0.80;99.90;;;;;;5034026;28;20223;-74
2024/01/06 10:17:39;;;;;;;15.77;8.07;;;-0.80;99.90;;;;;;5034637;28;20214;-75
2024/01/06 10:20:26;;;;;;;15.43;7.90;;;-0.80;99.90;;;;;;5034574;28;20273;-76
2024/01/06 10:23:14;;;;;;;14.00;7.50;;;-0.70;99.90;;;;;;5034428;28;20200;-75
2024/01/06 10:26:02;;;;;;;13.50;7.40;;;-0.80;99.90;;;;;;5034335;28;20316;-74
2024/01/06 10:28:51;;;;;;;13.17;7.03;;;-0.90;99.90;;;;;;5033768;28;20629;-76
2024/01/06 10:31:39;;;;;;;14.20;7.73;;;-0.90;99.90;;;;;;5034277;28;20561;-75
2024/01/06 10:34:28;;;;;;;15.27;7.27;;;-0.90;99.90;;;;;;5033147;28;20340;-75
2024/01/06 10:37:17;;;;;;;12.63;6.87;;;-0.90;99.90;;;;;;5031792;28;20224;-76
2024/01/06 10:40:10;;;;;;;14.07;7.60;;;-0.80;99.90;;;;;;5034574;28;20723;-75
2024/01/06 10:42:59;;;;;;;14.47;7.17;;;-0.80;99.90;;;;;;5033115;28;20212;-75
2024/01/06 10:45:47;;;;;;;15.07;7.50;;;-0.80;99.90;;;;;;5033538;28;20209;-75
2024/01/06 10:48:35;;;;;;;13.83;7.13;;;-0.80;99.90;;;;;;5033529;28;20193;-74
2024/01/06 10:51:25;;;;;;;15.27;7.90;;;-0.90;99.90;;;;;;5034303;28;20189;-75
2024/01/06 10:54:14;;;;;;;12.93;7.43;;;-0.80;99.90;;;;;;5033876;28;20196;-75
2024/01/06 10:57:03;;;;;;;14.43;7.33;;;-0.80;99.90;;;;;;5033715;28;20329;-75
2024/01/06 10:59:52;;;;;;;13.23;7.13;;;-0.70;99.90;;;;;;5034193;28;20208;-76
2024/01/06 11:02:41;;;;;;;15.77;7.53;;;-0.70;99.90;;;;;;5034379;28;20208;-75
2024/01/06 11:05:29;;;;;;;12.83;7.00;;;-0.70;99.90;;;;;;5033568;28;20238;-73
2024/01/06 11:08:18;;;;;;;13.20;6.63;;;-0.60;99.90;;;;;;5033355;28;20585;-75
2024/01/06 11:11:05;;;;;;;11.40;7.37;;;-0.50;99.90;;;;;;5033509;28;20363;-74
2024/01/06 11:13:53;;;;;;;13.17;7.03;;;-0.50;99.90;;;;;;5033855;28;20204;-75
2024/01/06 11:16:40;;;;;;;12.77;7.10;;;-0.60;99.90;;;;;;5033724;28;20198;-75
2024/01/06 11:19:42;;;;;;;11.20;6.50;;;-0.60;99.90;;;;;;5033445;28;20544;-74
2024/01/06 11:22:36;;;;;;;11.80;6.23;;;-0.60;99.90;;;;;;5031988;28;20213;-75
2024/01/06 11:25:25;;;;;;;12.03;6.40;;;-0.60;99.90;;;;;;5033865;28;20192;-75
2024/01/06 11:28:12;;;;;;;10.17;5.87;;;-0.70;99.90;;;;;;5033273;28;20719;-75
2024/01/06 11:31:08;;;;;;;11.60;6.43;;;-0.70;99.90;;;;;;5033686;28;20199;-75
2024/01/06 11:33:57;;;;;;;12.40;6.70;;;-0.70;99.90;;;;;;5032307;28;20199;-75
2024/01/06 11:36:47;;;;;;;11.80;6.30;;;-0.80;99.90;;;;;;5032667;28;20225;-73
2024/01/06 11:39:40;;;;;;;11.13;6.63;;;-0.80;99.90;;;;;;5031754;28;20205;-75
2024/01/06 11:42:35;;;;;;;13.37;6.70;;;-0.90;99.90;;;;;;5033249;28;20294;-74
2024/01/06 11:45:24;;;;;;;12.23;6.93;;;-0.80;99.90;;;;;;5033608;28;20199;-75
2024/01/06 11:48:13;;;;;;;11.57;6.30;;;-0.80;99.90;;;;;;5032868;28;20200;-75
2024/01/06 11:51:02;;;;;;;13.27;6.40;;;-0.80;99.90;;;;;;5030699;28;20201;-74
2024/01/06 11:53:50;;;;;;;12.87;6.60;;;-0.80;99.90;;;;;;5032217;28;20200;-75
2024/01/06 11:56:37;;;;;;;10.60;5.93;;;-0.90;99.90;;;;;;5032624;28;20313;-75
2024/01/06 11:59:24;;;;;;;14.13;7.43;;;-0.90;99.90;;;;;;5030467;28;20198;-74
2024/01/06 12:02:15;;;;;;;15.07;7.23;;;-1.00;99.90;;;;;;5032639;28;20200;-75
2024/01/06 12:05:03;;;;;;;13.93;7.13;;;-1.00;99.90;;;;;;5032467;28;20723;-75
2024/01/06 12:07:54;;;;;;;12.67;6.80;;;-1.00;99.90;;;;;;5034024;28;20293;-76
2024/01/06 12:10:42;;;;;;;14.00;6.63;;;-1.00;99.90;;;;;;5032983;28;20202;-75
2024/01/06 12:13:29;;;;;;;12.90;6.70;;;-1.00;99.90;;;;;;5032490;28;20283;-76
2024/01/06 12:16:17;;;;;;;14.30;7.00;;;-1.00;99.90;;;;;;5031406;28;20308;-75
2024/01/06 12:19:04;;;;;;;15.80;6.90;;;-1.00;99.90;;;;;;5032378;28;20197;-74
2024/01/06 12:21:52;;;;;;;12.37;6.47;;;-0.90;99.90;;;;;;5032304;28;20209;-75
2024/01/06 12:24:40;;;;;;;10.50;6.13;;;-0.90;99.90;;;;;;5031698;28;20291;-75
2024/01/06 12:27:27;;;;;;;12.30;6.40;;;-0.90;99.90;;;;;;5031269;28;20691;-75
2024/01/06 12:30:22;;;;;;;13.47;6.90;;;-0.90;99.90;;;;;;5031677;28;20198;-75
2024/01/06 12:33:10;;;;;;;12.63;6.30;;;-1.00;99.90;;;;;;5032653;28;20198;-75
2024/01/06 12:35:58;;;;;;;11.57;6.20;;;-1.00;99.90;;;;;;5032146;28;20625;-75
2024/01/06 12:38:56;;;;;;;11.73;6.17;;;-1.00;99.90;;;;;;5031525;28;20196;-76
2024/01/06 12:41:44;;;;;;;12.50;6.50;;;-1.00;99.90;;;;;;5032007;28;20220;-76
2024/01/06 12:44:33;;;;;;;12.17;6.33;;;-0.90;99.90;;;;;;5033211;28;20207;-77
2024/01/06 12:47:20;;;;;;;14.07;6.77;;;-1.00;99.90;;;;;;5030073;28;20198;-76
2024/01/06 12:50:08;;;;;;;12.73;6.70;;;-0.90;99.90;;;;;;5032407;28;20280;-75
2024/01/06 12:52:56;;;;;;;13.97;6.33;;;-0.90;99.90;;;;;;5030995;28;20454;-74
2024/01/06 12:55:44;;;;;;;11.07;6.03;;;-0.90;99.90;;;;;;5031720;28;20684;-75
2024/01/06 12:58:31;;;;;;;12.80;5.90;;;-0.90;99.90;;;;;;5031963;28;20202;-75
2024/01/06 13:01:19;;;;;;;12.17;5.73;;;-0.90;99.90;;;;;;5032336;28;20196;-74
2024/01/06 13:04:06;;;;;;;12.50;5.70;;;-1.00;99.90;;;;;;5030291;28;20648;-73
2024/01/06 13:06:54;;;;;;;11.63;5.73;;;-1.00;99.90;;;;;;5033559;28;20679;-75
2024/01/06 13:09:42;;;;;;;10.80;5.70;;;-0.90;99.90;;;;;;5031581;28;20193;-74
2024/01/06 13:12:30;;;;;;;12.10;5.80;;;-0.90;99.90;;;;;;5031228;28;20246;-75
2024/01/06 13:15:17;;;;;;;13.00;5.67;;;-0.80;99.90;;;;;;5031319;28;20365;-74
2024/01/06 13:18:05;;;;;;;9.80;5.70;;;-0.80;99.90;;;;;;5030770;28;20206;-75
2024/01/06 13:20:53;;;;;;;12.10;6.30;;;-0.90;99.90;;;;;;5030767;28;20278;-73
2024/01/06 13:23:41;;;;;;;12.70;6.00;;;-0.90;99.90;;;;;;5031226;28;20549;-74
2024/01/06 13:26:28;;;;;;;13.17;6.27;;;-0.90;99.90;;;;;;5032751;28;20557;-75
2024/01/06 13:29:17;;;;;;;11.57;5.57;;;-0.90;99.90;;;;;;5031312;28;20197;-74
2024/01/06 13:32:05;;;;;;;12.53;5.80;;;-1.00;99.90;;;;;;5030615;28;20198;-76
2024/01/06 13:34:55;;;;;;;9.80;5.60;;;-1.00;99.90;;;;;;5031936;28;20563;-75
2024/01/06 13:37:45;;;;;;;9.83;5.20;;;-1.00;99.90;;;;;;5032025;28;20321;-74
2024/01/06 13:40:32;;;;;;;12.23;5.00;;;-1.10;99.90;;;;;;5032707;28;20199;-73
2024/01/06 13:43:20;;;;;;;9.20;4.90;;;-1.10;99.90;;;;;;5031296;28;20201;-72
2024/01/06 13:46:07;;;;;;;8.30;4.73;;;-1.10;99.90;;;;;;5031891;28;20195;-73
2024/01/06 13:48:55;;;;;;;8.83;4.60;;;-1.00;99.90;;;;;;5031578;28;20231;-73
2024/01/06 13:51:44;;;;;;;10.73;5.27;;;-1.00;99.90;;;;;;5031542;28;20261;-74
2024/01/06 13:54:31;;;;;;;11.17;5.10;;;-1.00;99.90;;;;;;5031631;28;20196;-73
2024/01/06 13:57:20;;;;;;;8.30;4.70;;;-1.00;99.90;;;;;;5031275;28;20681;-73
2024/01/06 14:00:08;;;;;;;11.17;5.30;;;-1.00;99.90;;;;;;5035180;28;20659;-75
2024/01/06 14:02:56;;;;;;;9.07;4.50;;;-1.00;99.90;;;;;;5033875;28;20250;-74
2024/01/06 14:05:43;;;;;;;8.70;4.57;;;-1.00;99.90;;;;;;5036248;28;20227;-73
2024/01/06 14:08:31;;;;;;;8.20;4.60;;;-1.00;99.90;;;;;;5034758;28;20200;-73
2024/01/06 14:11:19;;;;;;;11.00;4.30;;;-1.10;99.90;;;;;;5033880;28;20221;-73
2024/01/06 14:14:06;;;;;;;6.83;4.47;;;-1.10;99.90;;;;;;5034489;28;20199;-73
2024/01/06 14:16:53;;;;;;;7.53;4.13;;;-1.10;99.90;;;;;;5033444;28;20217;-74
2024/01/06 14:19:42;;;;;;;8.33;4.33;;;-1.20;99.90;;;;;;5034437;28;20198;-72
2024/01/06 14:22:34;;;;;;;7.70;3.90;;;-1.10;99.90;;;;;;5035671;28;20242;-74